Time;durP1;ratioP1;P1;durP2;ratioP2;P2;SDS_P1;SDS_P2;PMS_P1;PMS_P2;Temp;Humidity;BMP_temperature;BMP_pressure;BME280_temperature;BME280_humidity;BME280_pressure;Samples;Min_cycle;Max_cycle;Signal;HPM_P1;HPM_P2
2021/03/03 00:01:53;;;;;;;122.23;37.67;;;;;;;-1.60;94.44;102835.22;5072467;28;20569;-66
2021/03/03 00:04:19;;;;;;;375.10;55.40;;;;;;;-1.61;94.26;102834.38;5071233;28;20572;-66
2021/03/03 00:06:44;;;;;;;173.87;41.00;;;;;;;-1.47;94.27;102835.84;5072079;28;20063;-66
2021/03/03 00:09:09;;;;;;;427.63;63.53;;;;;;;-1.59;94.08;102834.31;5071286;28;20427;-66
2021/03/03 00:11:35;;;;;;;210.03;43.60;;;;;;;-1.63;94.29;102828.28;5072335;28;20068;-66
2021/03/03 00:14:00;;;;;;;280.57;47.67;;;;;;;-1.48;94.34;102829.72;5071262;28;20558;-66
2021/03/03 00:16:25;;;;;;;429.03;60.20;;;;;;;-1.59;94.05;102823.84;5070879;28;20286;-66
2021/03/03 00:18:51;;;;;;;109.03;37.13;;;;;;;-1.64;94.14;102825.69;5054331;28;20123;-66
2021/03/03 00:21:16;;;;;;;107.10;32.43;;;;;;;-1.65;94.11;102816.13;5072141;28;20028;-66
2021/03/03 00:23:41;;;;;;;224.70;42.37;;;;;;;-1.55;94.27;102822.88;5071937;28;20040;-66
2021/03/03 00:26:07;;;;;;;247.67;37.00;;;;;;;-1.70;94.05;102819.69;5054094;28;20036;-65
2021/03/03 00:28:32;;;;;;;380.92;44.92;;;;;;;-1.87;94.05;102821.81;5070895;28;20109;-65
2021/03/03 00:30:57;;;;;;;526.93;59.00;;;;;;;-1.89;94.23;102812.28;5071803;28;20039;-66
2021/03/03 00:33:23;;;;;;;389.47;47.57;;;;;;;-1.93;94.14;102824.56;5070675;28;20583;-67
2021/03/03 00:35:48;;;;;;;129.83;30.37;;;;;;;-1.81;94.25;102811.19;5070603;28;20441;-67
2021/03/03 00:38:13;;;;;;;416.70;50.77;;;;;;;-1.79;94.37;102809.41;5070680;28;20497;-66
2021/03/03 00:40:39;;;;;;;243.82;40.00;;;;;;;-1.81;94.49;102811.19;5071612;28;20329;-66
2021/03/03 00:43:04;;;;;;;224.63;34.43;;;;;;;-1.67;94.38;102816.16;5070691;28;20123;-66
2021/03/03 00:45:29;;;;;;;260.02;39.40;;;;;;;-1.86;94.19;102807.81;5071447;28;20109;-66
2021/03/03 00:47:55;;;;;;;204.07;37.87;;;;;;;-1.97;94.36;102808.06;5070258;28;20683;-66
2021/03/03 00:50:21;;;;;;;162.65;28.38;;;;;;;-1.99;94.43;102814.19;5054006;28;20350;-66
2021/03/03 00:52:52;;;;;;;305.25;39.95;;;;;;;-1.88;94.52;102804.38;5071361;28;20024;-66
2021/03/03 00:55:18;;;;;;;264.17;39.90;;;;;;;-1.97;94.31;102804.56;5070414;28;20032;-66
2021/03/03 00:57:44;;;;;;;114.10;28.15;;;;;;;-1.91;94.36;102793.97;5071131;28;20033;-66
2021/03/03 01:00:16;;;;;;;236.07;34.58;;;;;;;-2.13;94.34;102804.03;5070465;28;20067;-66
2021/03/03 01:19:02;;;;;;;69.22;25.23;;;;;;;-1.54;94.51;102770.47;5192528;27;20236;-68
2021/03/03 01:21:28;;;;;;;369.10;46.38;;;;;;;-2.04;94.06;102769.78;5171281;27;20057;-68
2021/03/03 01:23:53;;;;;;;239.17;36.40;;;;;;;-1.96;94.32;102769.66;5151511;27;20065;-68
2021/03/03 01:26:18;;;;;;;263.43;39.67;;;;;;;-2.09;94.17;102762.94;5150028;27;20047;-68
2021/03/03 01:28:44;;;;;;;84.60;26.93;;;;;;;-1.88;94.32;102766.84;5112371;28;20048;-68
2021/03/03 01:31:09;;;;;;;92.07;28.73;;;;;;;-1.83;94.23;102758.00;5071453;28;20505;-68
2021/03/03 01:33:34;;;;;;;317.47;45.93;;;;;;;-1.99;94.14;102765.34;5103648;28;20044;-68
2021/03/03 01:36:00;;;;;;;132.93;31.13;;;;;;;-1.78;94.08;102764.03;5101419;28;20050;-68
2021/03/03 01:38:25;;;;;;;168.73;29.73;;;;;;;-1.82;94.16;102770.22;5120939;27;20038;-68
2021/03/03 01:40:51;;;;;;;196.75;33.70;;;;;;;-2.02;94.05;102754.91;5138069;27;20038;-68
2021/03/03 01:45:28;;;;;;;79.90;25.88;;;;;;;-1.89;94.24;102755.53;5193114;27;20185;-67
2021/03/03 01:47:53;;;;;;;249.73;40.10;;;;;;;-2.15;93.98;102748.22;5100454;27;680026;-67
2021/03/03 01:50:19;;;;;;;118.30;27.67;;;;;;;-1.98;94.21;102753.09;5091925;28;20058;-67
2021/03/03 01:52:44;;;;;;;437.23;47.13;;;;;;;-2.15;93.81;102741.22;5090792;28;20410;-67
2021/03/03 01:55:10;;;;;;;283.80;39.30;;;;;;;-2.21;93.88;102743.09;5072904;28;20274;-67
2021/03/03 01:57:36;;;;;;;124.03;29.75;;;;;;;-2.06;94.15;102742.81;5089493;28;20042;-67
2021/03/03 02:00:04;;;;;;;107.20;26.83;;;;;;;-2.16;94.07;102731.63;5089691;28;20127;-67
2021/03/03 02:02:37;;;;;;;427.45;48.08;;;;;;;-2.34;94.08;102732.03;5090718;28;20043;-68
2021/03/03 02:05:03;;;;;;;455.60;50.13;;;;;;;-2.18;94.15;102722.09;5090578;28;20040;-67
2021/03/03 02:07:47;;;;;;;121.43;32.05;;;;;;;-2.15;94.09;102719.44;5090239;28;20048;-68
2021/03/03 02:10:26;;;;;;;399.48;44.75;;;;;;;-2.36;94.35;102710.28;5089591;28;20032;-67
2021/03/03 02:13:02;;;;;;;328.13;35.53;;;;;;;-2.51;94.10;102715.81;5090444;28;20047;-68
2021/03/03 02:15:30;;;;;;;242.05;31.35;;;;;;;-2.48;94.30;102705.28;5090450;28;20036;-68
2021/03/03 02:17:57;;;;;;;515.30;46.22;;;;;;;-2.49;94.39;102703.56;5090001;28;20047;-67
2021/03/03 02:20:26;;;;;;;286.42;35.35;;;;;;;-2.49;94.45;102703.56;5090153;28;20040;-67
2021/03/03 02:23:06;;;;;;;630.10;74.10;;;;;;;-2.63;94.47;102709.06;5090258;28;20453;-67
2021/03/03 02:25:35;;;;;;;98.20;26.48;;;;;;;-2.37;94.57;102698.06;5090153;28;20044;-67
2021/03/03 02:28:04;;;;;;;89.47;24.15;;;;;;;-2.24;94.89;102696.06;5072069;28;20361;-67
2021/03/03 02:30:30;;;;;;;554.58;49.80;;;;;;;-2.48;94.44;102693.06;5090102;28;20060;-67
2021/03/03 02:32:57;;;;;;;303.73;35.92;;;;;;;-2.55;94.39;102694.09;5088982;28;20094;-67
2021/03/03 02:35:23;;;;;;;259.13;33.15;;;;;;;-2.43;94.38;102685.13;5089093;28;20036;-67
2021/03/03 02:37:48;;;;;;;286.17;35.22;;;;;;;-2.34;94.44;102682.34;5088788;28;20373;-67
2021/03/03 02:40:15;;;;;;;66.10;21.75;;;;;;;-2.23;94.54;102671.63;5088956;28;20066;-67
2021/03/03 02:42:42;;;;;;;65.63;21.98;;;;;;;-2.15;94.44;102673.19;5089894;28;20060;-68
2021/03/03 02:45:08;;;;;;;;;;;;;;;-2.30;94.00;102670.88;5089142;28;20118;-67
2021/03/03 02:47:35;;;;;;;207.80;27.38;;;;;;;-2.50;93.98;102665.22;5091726;28;19968;-67
2021/03/03 02:50:01;;;;;;;61.15;19.27;;;;;;;-2.38;94.15;102659.75;5088327;28;20456;-68
2021/03/03 02:52:27;;;;;;;105.30;25.00;;;;;;;-2.29;94.09;102653.47;5109020;28;20059;-67
2021/03/03 02:54:53;;;;;;;95.60;21.60;;;;;;;-2.25;94.17;102650.72;5106812;28;20135;-67
2021/03/03 02:57:20;;;;;;;84.13;21.60;;;;;;;-2.41;93.80;102638.84;5095244;28;20039;-67
2021/03/03 02:59:50;;;;;;;70.80;19.90;;;;;;;-2.32;93.82;102641.28;5095095;28;20032;-67
2021/03/03 03:02:19;;;;;;;120.50;23.65;;;;;;;-2.23;93.90;102638.47;5096280;28;20036;-67
2021/03/03 03:04:46;;;;;;;58.15;19.85;;;;;;;-2.23;93.83;102630.59;5095249;28;20414;-67
2021/03/03 03:07:17;;;;;;;187.93;26.80;;;;;;;-2.23;93.77;102632.38;5095297;28;20044;-67
2021/03/03 03:09:44;;;;;;;74.75;20.25;;;;;;;-2.45;93.51;102626.75;5095947;28;20075;-67
2021/03/03 03:12:12;;;;;;;49.85;19.38;;;;;;;-2.36;93.55;102635.25;5096148;28;20097;-66
2021/03/03 03:14:38;;;;;;;51.20;19.83;;;;;;;-2.32;93.59;102636.03;5094951;28;20082;-67
2021/03/03 03:17:07;;;;;;;56.95;19.08;;;;;;;-2.34;93.56;102633.47;5095962;28;20064;-68
2021/03/03 03:19:38;;;;;;;112.15;25.10;;;;;;;-2.50;93.35;102626.00;5095688;28;20040;-68
2021/03/03 03:22:07;;;;;;;44.35;18.95;;;;;;;-2.62;93.25;102627.97;5095037;28;20372;-69
2021/03/03 03:24:33;;;;;;;47.47;18.27;;;;;;;-2.63;93.26;102621.00;5095829;28;20052;-69
2021/03/03 03:26:59;;;;;;;42.63;16.23;;;;;;;-2.64;93.38;102621.06;5095666;28;20040;-68
2021/03/03 03:29:25;;;;;;;43.30;17.88;;;;;;;-2.56;93.23;102621.75;5095529;28;20032;-68
2021/03/03 03:31:52;;;;;;;42.22;17.42;;;;;;;-2.58;93.26;102619.16;5095688;28;20032;-66
2021/03/03 03:34:17;;;;;;;44.53;18.98;;;;;;;-2.66;93.12;102604.53;5094781;28;20028;-69
2021/03/03 03:36:43;;;;;;;41.83;17.10;;;;;;;-2.57;93.23;102605.19;5094823;28;20563;-67
2021/03/03 03:39:11;;;;;;;37.67;15.98;;;;;;;-2.49;93.31;102601.56;5095332;28;20044;-67
2021/03/03 03:41:38;;;;;;;37.90;14.90;;;;;;;-2.49;93.37;102604.16;5095276;28;20086;-67
2021/03/03 03:44:07;;;;;;;35.08;15.15;;;;;;;-2.56;93.15;102604.28;5095361;28;20032;-67
2021/03/03 03:46:33;;;;;;;36.25;13.65;;;;;;;-2.58;92.82;102598.22;5095401;28;20036;-67
2021/03/03 03:48:59;;;;;;;39.28;15.93;;;;;;;-2.65;92.93;102599.25;5094142;28;20032;-67
2021/03/03 03:51:25;;;;;;;32.42;13.13;;;;;;;-2.67;92.71;102593.22;5095423;28;20454;-67
2021/03/03 03:53:50;;;;;;;31.80;14.95;;;;;;;-2.69;92.82;102589.78;5095473;28;20032;-67
2021/03/03 03:56:16;;;;;;;28.30;13.05;;;;;;;-2.72;92.62;102584.59;5094209;28;20050;-67
2021/03/03 03:58:41;;;;;;;33.58;14.52;;;;;;;-2.78;92.33;102593.44;5094046;28;20117;-67
2021/03/03 04:01:07;;;;;;;32.88;15.18;;;;;;;-2.83;92.12;102586.59;5094381;28;20097;-67
2021/03/03 04:03:33;;;;;;;33.88;14.93;;;;;;;-2.80;92.31;102584.75;5095076;28;20032;-67
2021/03/03 04:06:02;;;;;;;37.92;15.48;;;;;;;-2.84;92.29;102585.69;5095177;28;20452;-67
2021/03/03 04:08:27;;;;;;;33.88;13.70;;;;;;;-2.72;92.28;102592.41;5093857;28;20031;-67
2021/03/03 04:10:53;;;;;;;33.78;15.18;;;;;;;-2.70;92.26;102593.25;5093998;28;20357;-67
2021/03/03 04:13:19;;;;;;;32.80;15.15;;;;;;;-2.76;91.91;102586.41;5094971;28;20101;-67
2021/03/03 04:15:44;;;;;;;26.80;12.25;;;;;;;-2.80;91.92;102584.75;5094025;28;20123;-67
2021/03/03 04:18:11;;;;;;;31.52;13.73;;;;;;;-2.79;91.73;102583.00;5093733;28;20035;-67
2021/03/03 04:20:36;;;;;;;29.10;13.00;;;;;;;-2.89;91.26;102586.69;5094918;28;20027;-67
2021/03/03 04:23:02;;;;;;;25.23;12.90;;;;;;;-2.89;91.34;102587.53;5094748;28;20050;-67
2021/03/03 04:25:27;;;;;;;26.15;12.57;;;;;;;-2.91;91.28;102586.72;5094589;28;20040;-67
2021/03/03 04:27:52;;;;;;;26.23;12.55;;;;;;;-2.89;91.24;102586.69;5093473;28;20055;-67
2021/03/03 04:30:18;;;;;;;23.40;12.20;;;;;;;-2.91;91.01;102575.41;5094785;28;20028;-67
2021/03/03 04:32:44;;;;;;;27.90;13.27;;;;;;;-2.95;90.65;102581.56;5093803;28;20043;-67
2021/03/03 04:35:10;;;;;;;23.83;11.87;;;;;;;-2.97;90.44;102577.25;5094645;28;20403;-67
2021/03/03 04:37:36;;;;;;;30.30;12.75;;;;;;;-2.95;90.46;102571.13;5093220;28;20040;-67
2021/03/03 04:40:04;;;;;;;25.02;12.77;;;;;;;-2.96;90.49;102575.50;5093409;28;20040;-67
2021/03/03 04:42:29;;;;;;;23.33;11.57;;;;;;;-3.02;90.13;102575.59;5094455;28;20059;-67
2021/03/03 04:44:54;;;;;;;23.57;11.83;;;;;;;-3.02;90.29;102571.25;5094394;28;20068;-67
2021/03/03 04:47:20;;;;;;;26.33;13.47;;;;;;;-3.05;89.81;102575.69;5094259;28;20128;-67
2021/03/03 04:49:45;;;;;;;20.85;10.73;;;;;;;-3.03;89.81;102572.13;5093896;28;20347;-67
2021/03/03 04:52:11;;;;;;;22.40;12.32;;;;;;;-3.05;89.62;102576.53;5076399;28;20059;-67
2021/03/03 04:54:36;;;;;;;26.20;12.40;;;;;;;-3.03;89.75;102579.97;5094236;28;20115;-67
2021/03/03 04:57:03;;;;;;;23.27;11.57;;;;;;;-3.08;89.29;102575.75;5076318;28;20623;-67
2021/03/03 04:59:29;;;;;;;23.52;12.07;;;;;;;-3.14;89.21;102571.47;5076207;28;20304;-67
2021/03/03 05:01:54;;;;;;;22.97;11.60;;;;;;;-3.21;88.97;102569.88;5094122;28;20528;-67
2021/03/03 05:04:19;;;;;;;23.77;11.53;;;;;;;-3.20;88.88;102576.84;5093994;28;20090;-66
2021/03/03 05:06:45;;;;;;;27.98;12.68;;;;;;;-3.22;88.97;102570.78;5094075;28;20352;-67
2021/03/03 05:09:10;;;;;;;25.63;13.13;;;;;;;-3.26;88.85;102566.50;5075707;28;20067;-67
2021/03/03 05:11:35;;;;;;;18.57;10.50;;;;;;;-3.30;88.54;102562.22;5076260;28;20284;-67
2021/03/03 05:14:01;;;;;;;23.13;11.80;;;;;;;-3.33;88.31;102557.06;5093893;28;20344;-67
2021/03/03 05:16:26;;;;;;;20.75;10.23;;;;;;;-3.35;88.60;102557.06;5093994;28;20036;-67
2021/03/03 05:18:52;;;;;;;23.50;11.13;;;;;;;-3.37;88.43;102552.78;5093384;28;20103;-67
2021/03/03 05:21:17;;;;;;;21.60;10.67;;;;;;;-3.41;88.27;102552.84;5093915;28;20289;-67
2021/03/03 05:23:42;;;;;;;21.90;10.20;;;;;;;-3.41;88.10;102547.63;5093635;28;20057;-67
2021/03/03 05:26:08;;;;;;;20.90;10.57;;;;;;;-3.38;88.18;102553.69;5059340;28;20048;-67
2021/03/03 05:28:34;;;;;;;22.17;11.43;;;;;;;-3.43;87.96;102553.75;5093511;28;20294;-67
2021/03/03 05:31:00;;;;;;;24.33;11.52;;;;;;;-3.47;87.85;102549.47;5093741;28;20432;-67
2021/03/03 05:33:25;;;;;;;;;;;;;;;-3.48;87.78;102547.75;5076279;28;20086;-67
2021/03/03 05:35:52;;;;;;;24.65;11.25;;;;;;;-3.48;88.01;102545.16;5093547;28;19915;-67
2021/03/03 05:38:17;;;;;;;21.35;10.10;;;;;;;-3.53;87.76;102547.84;5093009;28;20483;-66
2021/03/03 05:40:45;;;;;;;24.40;11.88;;;;;;;-3.50;87.81;102547.78;5093595;28;20044;-67
2021/03/03 05:43:10;;;;;;;23.50;11.68;;;;;;;-3.56;87.40;102547.88;5093689;28;20075;-67
2021/03/03 05:45:36;;;;;;;27.45;13.68;;;;;;;-3.54;87.78;102540.03;5093589;28;20070;-67
2021/03/03 05:48:03;;;;;;;25.15;12.45;;;;;;;-3.56;87.47;102542.66;5093159;28;20100;-66
2021/03/03 05:50:31;;;;;;;22.30;12.23;;;;;;;-3.55;87.19;102547.00;5075584;28;20594;-67
2021/03/03 05:52:56;;;;;;;23.05;12.02;;;;;;;-3.52;87.33;102541.72;5075759;28;20040;-67
2021/03/03 05:55:22;;;;;;;26.00;11.27;;;;;;;-3.45;87.24;102538.09;5093368;28;20069;-67
2021/03/03 05:57:48;;;;;;;29.17;13.43;;;;;;;-3.37;87.45;102539.72;5093220;28;20119;-67
2021/03/03 06:00:15;;;;;;;23.77;12.50;;;;;;;-3.39;86.98;102539.75;5075652;28;20097;-67
2021/03/03 06:02:40;;;;;;;24.55;12.57;;;;;;;-3.41;87.14;102541.53;5093265;28;20036;-67
2021/03/03 06:05:06;;;;;;;25.25;12.40;;;;;;;-3.37;87.22;102535.38;5075509;28;20182;-67
2021/03/03 06:07:33;;;;;;;28.10;15.13;;;;;;;-3.34;87.34;102537.06;5092939;28;20072;-67
2021/03/03 06:09:58;;;;;;;24.15;12.82;;;;;;;-3.33;87.36;102538.78;5093411;28;20342;-67
2021/03/03 06:12:24;;;;;;;28.47;15.03;;;;;;;-3.30;87.43;102538.69;5093296;28;20086;-67
2021/03/03 06:14:49;;;;;;;27.27;14.20;;;;;;;-3.29;87.91;102532.59;5093362;28;20457;-67
2021/03/03 06:17:15;;;;;;;33.60;14.77;;;;;;;-3.13;88.39;102531.41;5075360;28;20036;-67
2021/03/03 06:19:40;;;;;;;36.47;16.40;;;;;;;-2.98;88.98;102532.84;5075183;28;20027;-67
2021/03/03 06:22:26;;;;;;;61.73;21.27;;;;;;;-2.86;89.31;102534.34;5092962;28;20039;-67
2021/03/03 06:24:53;;;;;;;;;;;;;;;-2.79;90.04;102517.63;5075739;28;20320;-67
2021/03/03 06:27:21;;;;;;;57.63;21.88;;;;;;;-2.81;90.70;102516.78;5075044;28;19912;-67
2021/03/03 06:30:06;;;;;;;44.53;20.42;;;;;;;-2.72;91.03;102516.59;5075130;28;20441;-67
2021/03/03 06:32:51;;;;;;;45.30;21.02;;;;;;;-2.62;91.23;102514.66;5078881;28;20381;-67
2021/03/03 06:35:16;;;;;;;57.30;22.37;;;;;;;-2.56;91.34;102512.75;5097011;28;20396;-67
2021/03/03 06:37:56;;;;;;;53.97;23.17;;;;;;;-2.47;91.16;102509.06;5096600;28;20137;-67
2021/03/03 06:40:22;;;;;;;61.50;23.33;;;;;;;-2.40;91.27;102502.81;5079005;28;20032;-67
2021/03/03 06:42:48;;;;;;;50.58;22.88;;;;;;;-2.30;91.28;102498.19;5096781;28;20028;-67
2021/03/03 06:45:31;;;;;;;113.95;25.65;;;;;;;-2.20;91.36;102504.94;5078948;28;20520;-68
2021/03/03 06:47:58;;;;;;;52.00;22.35;;;;;;;-2.13;91.23;102498.66;5096411;28;20032;-67
2021/03/03 06:50:37;;;;;;;128.98;28.40;;;;;;;-2.10;91.13;102497.72;5096559;28;20075;-68
2021/03/03 06:53:03;;;;;;;86.97;28.10;;;;;;;-2.05;90.97;102497.63;5096565;28;20084;-68
2021/03/03 06:55:49;;;;;;;95.70;29.58;;;;;;;-1.27;92.07;102501.63;5096184;28;20440;-68
2021/03/03 06:58:43;;;;;;;57.42;23.58;;;;;;;-1.48;91.38;102494.34;5076803;28;20457;-68
2021/03/03 07:01:15;;;;;;;62.40;22.15;;;;;;;-1.51;91.14;102486.59;5078076;28;20411;-68
2021/03/03 07:03:47;;;;;;;176.52;30.95;;;;;;;-1.66;90.46;102489.63;5092622;28;20055;-68
2021/03/03 07:06:31;;;;;;;254.93;32.47;;;;;;;-2.00;90.57;102493.13;5096322;28;20032;-67
2021/03/03 07:08:59;;;;;;;269.67;34.58;;;;;;;-2.04;91.06;102484.47;5061574;28;20368;-67
2021/03/03 07:11:27;;;;;;;61.70;25.20;;;;;;;-1.83;91.35;102488.28;5078378;28;20424;-68
2021/03/03 07:13:52;;;;;;;78.93;25.50;;;;;;;-1.70;91.47;102489.69;5078300;28;20067;-67
2021/03/03 07:16:18;;;;;;;187.77;34.15;;;;;;;-1.62;91.12;102486.88;5096060;28;20396;-67
2021/03/03 07:18:43;;;;;;;74.60;25.50;;;;;;;-1.71;91.31;102484.50;5077967;28;20096;-68
2021/03/03 07:21:09;;;;;;;329.77;44.43;;;;;;;-1.62;91.17;102481.63;5078244;28;20377;-68
2021/03/03 07:23:45;;;;;;;84.55;26.70;;;;;;;-1.59;91.01;102489.44;5078227;28;20052;-68
2021/03/03 07:26:13;;;;;;;65.03;25.08;;;;;;;-1.36;91.26;102487.91;5095912;28;20081;-68
2021/03/03 07:28:39;;;;;;;73.28;26.90;;;;;;;-1.22;91.12;102495.38;5077721;28;20472;-68
2021/03/03 07:31:05;;;;;;;;;;;;;;;-1.17;90.71;102488.25;5078489;28;20036;-68
2021/03/03 07:33:31;;;;;;;221.18;31.13;;;;;;;-1.25;90.36;102480.63;5078020;28;19912;-68
2021/03/03 07:35:59;;;;;;;302.58;38.63;;;;;;;-1.54;90.23;102479.69;5077955;28;20453;-68
2021/03/03 07:38:29;;;;;;;179.30;30.40;;;;;;;-1.27;90.69;102483.28;5076922;28;20111;-68
2021/03/03 07:40:54;;;;;;;241.60;32.95;;;;;;;-1.48;90.58;102499.59;5093790;28;20475;-68
2021/03/03 07:43:24;;;;;;;155.57;30.07;;;;;;;-1.46;91.06;102484.69;5075832;28;20048;-68
2021/03/03 07:45:50;;;;;;;259.67;34.47;;;;;;;-1.09;91.11;102489.75;5093801;28;20314;-68
2021/03/03 07:48:16;;;;;;;212.40;31.90;;;;;;;-1.13;90.57;102484.66;5075602;28;20147;-68
2021/03/03 07:50:42;;;;;;;138.70;29.08;;;;;;;-1.07;90.43;102480.09;5076057;28;20043;-68
2021/03/03 07:53:09;;;;;;;105.18;30.55;;;;;;;-0.85;90.79;102479.44;5093967;28;20368;-68
2021/03/03 07:55:37;;;;;;;90.20;25.42;;;;;;;-0.57;90.69;102471.56;5095312;28;20422;-68
2021/03/03 07:58:06;;;;;;;213.95;34.55;;;;;;;-0.74;89.17;102476.50;5095040;28;20039;-68
2021/03/03 08:00:33;;;;;;;234.98;32.95;;;;;;;-0.62;89.05;102470.88;5077500;28;20067;-68
2021/03/03 08:02:59;;;;;;;100.63;25.23;;;;;;;-0.41;89.43;102458.84;5077468;28;20044;-68
2021/03/03 08:05:37;;;;;;;286.48;46.75;;;;;;;-0.31;88.53;102459.38;5095172;28;20047;-68
2021/03/03 08:08:34;;;;;;;218.23;29.05;;;;;;;-0.37;87.64;102449.97;5094866;28;20047;-68
2021/03/03 08:10:59;;;;;;;92.15;25.50;;;;;;;-0.22;88.12;102454.69;5095082;28;20085;-68
2021/03/03 08:13:35;;;;;;;100.47;27.10;;;;;;;0.02;88.32;102448.66;5095039;28;20040;-68
2021/03/03 08:16:02;;;;;;;130.20;24.60;;;;;;;0.18;87.60;102445.44;5077129;28;20035;-68
2021/03/03 08:18:31;;;;;;;54.60;18.67;;;;;;;0.22;86.91;102442.72;5076679;28;20329;-68
2021/03/03 08:21:00;;;;;;;58.97;22.30;;;;;;;0.46;87.02;102446.25;5094848;28;20040;-68
2021/03/03 08:23:34;;;;;;;70.35;22.23;;;;;;;0.35;86.23;102444.88;5094737;28;20042;-68
2021/03/03 08:26:01;;;;;;;440.45;52.47;;;;;;;0.28;85.87;102442.50;5094747;28;20528;-69
2021/03/03 08:28:31;;;;;;;82.47;24.50;;;;;;;0.45;85.75;102441.91;5076525;28;20044;-68
2021/03/03 08:31:08;;;;;;;148.98;25.80;;;;;;;0.64;85.19;102442.94;5094733;28;20445;-68
2021/03/03 08:33:41;;;;;;;143.90;25.38;;;;;;;0.62;84.27;102442.13;5094638;28;20043;-68
2021/03/03 08:36:11;;;;;;;111.00;24.83;;;;;;;0.50;85.07;102429.44;5076762;28;20040;-68
2021/03/03 08:38:36;;;;;;;74.30;21.90;;;;;;;0.63;85.41;102441.22;5076530;28;20349;-68
2021/03/03 08:41:14;;;;;;;144.45;26.95;;;;;;;0.69;84.30;102442.78;5094473;28;20031;-68
2021/03/03 08:43:40;;;;;;;61.97;21.05;;;;;;;0.96;84.72;102438.22;5094171;28;20036;-68
2021/03/03 08:46:21;;;;;;;66.75;23.65;;;;;;;1.01;84.18;102431.03;5076605;28;20064;-69
2021/03/03 08:49:07;;;;;;;102.88;24.80;;;;;;;1.15;84.67;102430.50;5078984;28;20141;-69
2021/03/03 08:51:37;;;;;;;84.05;24.17;;;;;;;1.12;84.25;102420.06;5076290;28;20456;-68
2021/03/03 08:54:08;;;;;;;104.07;26.42;;;;;;;1.31;84.13;102420.19;5093613;28;20036;-68
2021/03/03 08:56:48;;;;;;;259.48;33.30;;;;;;;0.89;84.27;102419.22;5093232;28;20452;-68
2021/03/03 08:59:32;;;;;;;230.68;32.22;;;;;;;1.03;85.13;102421.28;5092766;28;20110;-68
2021/03/03 09:02:17;;;;;;;54.15;22.02;;;;;;;1.53;84.96;102415.78;5093975;28;20051;-68
2021/03/03 09:04:45;;;;;;;90.13;23.98;;;;;;;1.74;82.27;102418.47;5094073;28;20380;-68
2021/03/03 09:07:19;;;;;;;71.07;24.95;;;;;;;0.89;84.13;102416.59;5093957;28;20460;-68
2021/03/03 09:09:46;;;;;;;99.93;25.70;;;;;;;0.90;85.17;102417.44;5092696;28;20044;-68
2021/03/03 09:12:14;;;;;;;58.10;25.10;;;;;;;1.38;85.17;102413.78;5093098;28;20130;-68
2021/03/03 09:14:41;;;;;;;73.07;24.98;;;;;;;1.34;84.01;102407.78;5076150;28;20034;-68
2021/03/03 09:17:15;;;;;;;61.97;27.02;;;;;;;1.74;83.69;102408.78;5093844;28;20051;-68
2021/03/03 09:19:42;;;;;;;56.90;25.25;;;;;;;1.95;82.98;102400.88;5093713;28;20031;-68
2021/03/03 09:22:15;;;;;;;;;;;;;;;2.53;82.17;102404.41;5094345;28;20035;-69
2021/03/03 09:24:40;;;;;;;44.50;21.52;;;;;;;3.23;80.11;102396.75;5092877;28;19926;-68
2021/03/03 09:27:09;;;;;;;45.23;21.07;;;;;;;3.79;76.95;102387.81;5093788;28;20031;-69
2021/03/03 09:29:38;;;;;;;69.50;22.80;;;;;;;2.92;79.22;102400.00;5092341;28;20027;-69
2021/03/03 09:32:21;;;;;;;44.78;22.63;;;;;;;3.48;79.70;102395.53;5093710;28;20071;-68
2021/03/03 09:35:00;;;;;;;45.50;24.15;;;;;;;3.44;78.70;102391.34;5092184;28;20035;-68
2021/03/03 09:37:26;;;;;;;58.80;27.45;;;;;;;3.73;77.63;102382.81;5091526;28;20128;-69
2021/03/03 09:39:56;;;;;;;43.40;23.13;;;;;;;3.72;78.04;102389.03;5090976;28;20123;-69
2021/03/03 09:42:23;;;;;;;55.58;26.33;;;;;;;3.08;79.27;102386.94;5091065;28;20040;-68
2021/03/03 09:44:53;;;;;;;56.65;27.63;;;;;;;2.96;80.52;102381.31;5090921;28;20123;-69
2021/03/03 09:47:25;;;;;;;65.45;28.35;;;;;;;2.84;81.54;102379.25;5090951;28;20380;-68
2021/03/03 09:49:50;;;;;;;57.33;27.83;;;;;;;3.06;81.12;102379.09;5073844;28;20051;-68
2021/03/03 09:52:15;;;;;;;55.50;27.10;;;;;;;3.37;80.83;102381.09;5093061;28;20036;-69
2021/03/03 09:54:41;;;;;;;63.23;29.77;;;;;;;3.22;80.76;102370.44;5092529;28;20032;-68
2021/03/03 09:57:09;;;;;;;53.30;25.77;;;;;;;3.95;79.26;102371.97;5093462;28;20056;-68
2021/03/03 09:59:36;;;;;;;59.83;27.75;;;;;;;3.95;79.22;102376.41;5093164;28;20032;-68
2021/03/03 10:02:03;;;;;;;56.33;27.30;;;;;;;4.23;78.00;102371.38;5092355;28;20062;-68
2021/03/03 10:04:29;;;;;;;54.78;27.60;;;;;;;4.69;77.55;102361.91;5092383;28;20028;-69
2021/03/03 10:06:55;;;;;;;57.88;28.30;;;;;;;4.83;77.03;102360.19;5096564;28;20060;-68
2021/03/03 10:09:21;;;;;;;57.58;26.27;;;;;;;5.24;76.12;102353.50;5096197;28;20078;-68
2021/03/03 10:11:46;;;;;;;48.25;25.52;;;;;;;5.18;74.44;102348.56;5097395;28;20028;-69
2021/03/03 10:14:13;;;;;;;44.73;23.57;;;;;;;5.78;73.50;102353.81;5097435;28;20448;-69
2021/03/03 10:16:38;;;;;;;50.90;25.50;;;;;;;5.81;72.84;102343.06;5097402;28;20046;-69
2021/03/03 10:19:06;;;;;;;44.37;22.90;;;;;;;6.57;71.27;102336.63;5096182;28;20449;-69
2021/03/03 10:21:36;;;;;;;43.10;22.48;;;;;;;6.65;70.41;102334.34;5095942;28;20384;-69
2021/03/03 10:24:16;;;;;;;40.55;23.00;;;;;;;6.70;70.45;102326.94;5096190;28;20150;-69
2021/03/03 10:26:51;;;;;;;37.35;22.98;;;;;;;7.37;68.52;102320.78;5096282;28;20036;-69
2021/03/03 10:29:31;;;;;;;27.07;15.03;;;;;;;7.67;67.73;102322.34;5095878;28;20036;-68
2021/03/03 10:32:12;;;;;;;35.40;19.05;;;;;;;8.59;64.56;102321.19;5096866;28;20051;-67
2021/03/03 10:34:38;;;;;;;38.78;23.48;;;;;;;8.57;62.86;102318.66;5093948;28;20028;-69
2021/03/03 10:37:04;;;;;;;36.88;21.10;;;;;;;8.50;63.25;102313.88;5091433;28;20020;-69
2021/03/03 10:39:30;;;;;;;;;;;;;;;9.12;62.51;102324.41;5086236;28;20118;-70
2021/03/03 10:42:00;;;;;;;32.60;18.08;;;;;;;9.51;61.75;102314.38;5086597;28;20364;-69
2021/03/03 10:44:49;;;;;;;32.33;18.98;;;;;;;10.08;59.40;102310.78;5084707;28;20055;-70
2021/03/03 10:47:16;;;;;;;35.35;20.85;;;;;;;10.44;58.73;102311.56;5084453;28;20055;-67
2021/03/03 10:49:41;;;;;;;;;;;;;;;9.89;59.85;102307.88;5085254;28;20079;-67
2021/03/03 10:52:16;;;;;;;;;;;;;;;10.47;60.03;102303.28;5086646;28;19912;-67
2021/03/03 10:54:42;;;;;;;38.10;22.13;;;;;;;10.45;58.28;102299.06;5068222;28;19920;-68
2021/03/03 10:57:08;;;;;;;34.20;21.50;;;;;;;10.64;58.18;102288.56;5067787;28;20044;-68
2021/03/03 10:59:36;;;;;;;41.33;24.35;;;;;;;11.11;56.79;102281.09;5085902;28;20032;-68
2021/03/03 11:02:03;;;;;;;38.65;21.80;;;;;;;11.64;55.66;102282.88;5067359;28;20035;-68
2021/03/03 11:04:43;;;;;;;30.70;20.10;;;;;;;11.77;55.85;102285.34;5085918;28;20047;-67
2021/03/03 11:07:10;;;;;;;34.65;22.73;;;;;;;11.78;54.77;102285.22;5085974;28;20033;-68
2021/03/03 11:09:36;;;;;;;34.90;22.77;;;;;;;11.71;55.60;102269.84;5077852;28;20528;-68
2021/03/03 11:12:03;;;;;;;35.80;22.13;;;;;;;11.81;54.93;102276.91;5061724;28;20437;-68
2021/03/03 11:14:29;;;;;;;32.15;20.90;;;;;;;12.40;53.11;102263.78;5096184;28;20118;-68
2021/03/03 11:16:56;;;;;;;37.55;21.05;;;;;;;12.13;54.25;102270.63;5095706;28;20492;-68
2021/03/03 11:19:22;;;;;;;39.38;22.92;;;;;;;12.28;53.88;102270.22;5095812;28;20036;-68
2021/03/03 11:21:48;;;;;;;;;;;;;;;12.85;53.03;102260.59;5096484;28;20040;-68
2021/03/03 11:24:13;;;;;;;;;;;;;;;12.13;53.95;102261.75;5078491;28;19919;-68
2021/03/03 11:26:43;;;;;;;37.35;22.10;;;;;;;12.89;52.68;102251.28;5078080;28;19947;-67
2021/03/03 11:29:10;;;;;;;35.47;22.15;;;;;;;13.43;51.68;102247.16;5077825;28;20047;-68
2021/03/03 11:31:36;;;;;;;;;;;;;;;13.33;51.36;102249.03;5078492;28;20128;-68
2021/03/03 11:34:01;;;;;;;;;;;;;;;13.93;50.29;102246.03;5061769;28;20502;-68
2021/03/03 11:36:27;;;;;;;36.83;20.45;;;;;;;13.47;51.35;102248.56;5095617;28;19912;-68